Time;durP1;ratioP1;P1;durP2;ratioP2;P2;SDS_P1;SDS_P2;PMS_P1;PMS_P2;Temp;Humidity;BMP_temperature;BMP_pressure;BME280_temperature;BME280_humidity;BME280_pressure;Samples;Min_cycle;Max_cycle;Signal;HPM_P1;HPM_P2
2023/04/18 00:00:36;;;;;;;21.10;18.80;;;;;20.10;101407.00;;;;2072417;28;20214;-63
2023/04/18 00:01:38;;;;;;;20.80;18.37;;;;;20.20;101401.00;;;;2074290;28;20225;-63
2023/04/18 00:02:39;;;;;;;21.35;18.95;;;;;20.10;101405.00;;;;2072396;28;20272;-62
2023/04/18 00:03:39;;;;;;;19.97;17.63;;;;;20.10;101400.00;;;;2072744;28;20303;-63
2023/04/18 00:04:40;;;;;;;21.20;18.93;;;;;20.10;101403.00;;;;2071765;28;20681;-63
2023/04/18 00:05:42;;;;;;;18.93;16.83;;;;;20.10;101403.00;;;;2073068;28;20263;-63
2023/04/18 00:06:42;;;;;;;19.10;17.08;;;;;20.10;101403.00;;;;2071572;28;20273;-62
2023/04/18 00:07:43;;;;;;;21.43;18.93;;;;;20.10;101409.00;;;;2072404;28;20755;-62
2023/04/18 00:08:43;;;;;;;19.93;17.83;;;;;20.10;101396.00;;;;2072279;28;20693;-63
2023/04/18 00:09:44;;;;;;;20.47;18.37;;;;;20.10;101398.00;;;;2072700;28;20641;-62
2023/04/18 00:10:45;;;;;;;20.20;17.70;;;;;20.10;101408.00;;;;2072577;28;20569;-62
2023/04/18 00:11:45;;;;;;;19.47;17.43;;;;;20.10;101400.00;;;;2072665;28;20216;-62
2023/04/18 00:12:46;;;;;;;22.07;18.80;;;;;20.10;101398.00;;;;2072472;28;20233;-63
2023/04/18 00:13:46;;;;;;;23.17;19.00;;;;;20.10;101402.00;;;;2071191;28;20210;-63
2023/04/18 00:14:49;;;;;;;20.47;18.40;;;;;20.10;101398.00;;;;2072361;28;20206;-63
2023/04/18 00:15:52;;;;;;;20.45;16.35;;;;;20.10;101399.00;;;;2072454;28;20674;-63
2023/04/18 00:16:53;;;;;;;18.85;16.67;;;;;20.10;101399.00;;;;2071252;28;20210;-63
2023/04/18 00:17:55;;;;;;;18.83;16.90;;;;;20.10;101398.00;;;;2055828;28;20702;-63
2023/04/18 00:18:56;;;;;;;18.10;16.02;;;;;20.10;101401.00;;;;2055262;28;20220;-63
2023/04/18 00:19:57;;;;;;;19.37;16.97;;;;;20.10;101401.00;;;;2072165;28;20236;-59
2023/04/18 00:20:57;;;;;;;16.77;14.97;;;;;20.10;101403.00;;;;2073583;28;20206;-62
2023/04/18 00:21:58;;;;;;;18.33;16.23;;;;;20.10;101404.00;;;;2073915;28;20920;-62
2023/04/18 00:22:59;;;;;;;20.17;17.50;;;;;20.10;101403.00;;;;2072288;28;20289;-62
2023/04/18 00:23:59;;;;;;;16.47;14.67;;;;;20.10;101398.00;;;;2072036;28;20682;-62
2023/04/18 00:25:00;;;;;;;16.13;14.50;;;;;19.90;101402.00;;;;2072355;28;20984;-62
2023/04/18 00:26:00;;;;;;;18.20;16.30;;;;;20.10;101405.00;;;;2071704;28;20954;-63
2023/04/18 00:27:01;;;;;;;15.47;13.97;;;;;20.10;101406.00;;;;2072480;28;20206;-62
2023/04/18 00:28:01;;;;;;;17.30;15.13;;;;;20.10;101397.00;;;;2071907;28;20810;-62
2023/04/18 00:29:02;;;;;;;18.10;14.90;;;;;20.10;101400.00;;;;2072322;28;20213;-62
2023/04/18 00:30:03;;;;;;;17.37;15.60;;;;;20.10;101404.00;;;;2071277;28;20701;-63
2023/04/18 00:31:03;;;;;;;15.20;13.60;;;;;20.10;101402.00;;;;2072864;28;20293;-63
2023/04/18 00:32:04;;;;;;;16.87;15.10;;;;;20.10;101400.00;;;;2071959;28;20464;-63
2023/04/18 00:33:05;;;;;;;16.33;14.63;;;;;20.10;101409.00;;;;2071671;28;20793;-62
2023/04/18 00:34:05;;;;;;;18.43;16.30;;;;;20.10;101404.00;;;;2069885;28;20225;-62
2023/04/18 00:35:05;;;;;;;14.87;13.27;;;;;20.10;101406.00;;;;2071274;28;20457;-62
2023/04/18 00:36:06;;;;;;;16.73;15.03;;;;;20.00;101409.00;;;;2072043;28;20225;-63
2023/04/18 00:37:06;;;;;;;14.83;13.37;;;;;20.10;101404.00;;;;2070924;28;20317;-63
2023/04/18 00:38:07;;;;;;;16.90;14.53;;;;;20.10;101406.00;;;;2072077;28;20292;-63
2023/04/18 00:39:07;;;;;;;15.30;13.70;;;;;20.10;101408.00;;;;2071174;28;20210;-62
2023/04/18 00:40:08;;;;;;;15.27;13.73;;;;;20.10;101407.00;;;;2070948;28;20222;-62
2023/04/18 00:41:08;;;;;;;16.00;14.40;;;;;20.00;101400.00;;;;2074443;28;20218;-62
2023/04/18 00:42:09;;;;;;;19.43;16.20;;;;;20.00;101403.00;;;;2061309;28;20207;-63
2023/04/18 00:43:12;;;;;;;14.00;12.63;;;;;20.00;101393.00;;;;2071720;28;20751;-63
2023/04/18 00:44:12;;;;;;;15.32;13.45;;;;;20.00;101399.00;;;;2063247;28;20678;-63
2023/04/18 00:45:12;;;;;;;13.93;12.50;;;;;20.00;101401.00;;;;2068166;28;20226;-62
2023/04/18 00:46:12;;;;;;;13.97;12.50;;;;;20.00;101403.00;;;;2072101;28;20242;-63
2023/04/18 00:47:19;;;;;;;13.50;12.10;;;;;20.00;101401.00;;;;2072552;28;20260;-62
2023/04/18 00:48:19;;;;;;;14.20;12.80;;;;;20.00;101394.00;;;;2076275;28;20245;-64
2023/04/18 00:49:20;;;;;;;15.00;13.40;;;;;20.00;101396.00;;;;2076367;28;20275;-64
2023/04/18 00:50:21;;;;;;;13.60;12.20;;;;;20.00;101397.00;;;;2067728;28;20215;-63
2023/04/18 00:51:21;;;;;;;15.07;12.93;;;;;20.00;101397.00;;;;2059517;28;20265;-63
2023/04/18 00:52:22;;;;;;;16.03;14.40;;;;;20.00;101398.00;;;;2055873;28;20212;-63
2023/04/18 00:53:22;;;;;;;13.60;12.20;;;;;20.00;101394.00;;;;2054724;28;20279;-63
2023/04/18 00:54:23;;;;;;;14.60;12.87;;;;;20.00;101400.00;;;;2062024;28;20229;-63
2023/04/18 00:55:23;;;;;;;14.10;12.70;;;;;20.00;101389.00;;;;2074938;28;20209;-63
2023/04/18 00:56:24;;;;;;;12.90;11.70;;;;;20.00;101395.00;;;;2069673;28;20207;-62
2023/04/18 00:57:25;;;;;;;12.80;11.50;;;;;20.00;101398.00;;;;2075893;28;20316;-63
2023/04/18 00:58:25;;;;;;;12.87;11.63;;;;;20.00;101397.00;;;;2070910;28;20207;-63
2023/04/18 00:59:25;;;;;;;13.47;12.03;;;;;20.00;101397.00;;;;2077054;28;20230;-63
2023/04/18 01:00:26;;;;;;;12.27;10.73;;;;;20.00;101398.00;;;;2074057;28;20219;-63
2023/04/18 01:01:26;;;;;;;13.03;11.47;;;;;20.00;101394.00;;;;2070955;28;20293;-63
2023/04/18 01:02:29;;;;;;;13.83;12.30;;;;;20.00;101394.00;;;;2071765;28;20570;-63
2023/04/18 01:03:29;;;;;;;13.82;12.40;;;;;20.00;101403.00;;;;2071830;28;21044;-63
2023/04/18 01:04:31;;;;;;;13.83;12.53;;;;;20.00;101397.00;;;;2071002;28;20233;-63
2023/04/18 01:05:31;;;;;;;13.10;11.55;;;;;20.00;101396.00;;;;2072016;28;20593;-62
2023/04/18 01:06:31;;;;;;;13.07;11.70;;;;;20.00;101391.00;;;;2070262;28;20194;-63
2023/04/18 01:07:32;;;;;;;11.87;10.77;;;;;20.00;101388.00;;;;2077127;28;20209;-63
2023/04/18 01:08:33;;;;;;;13.97;11.47;;;;;20.00;101379.00;;;;2072471;28;20226;-63
2023/04/18 01:09:33;;;;;;;12.23;10.87;;;;;20.00;101394.00;;;;2060176;28;20257;-63
2023/04/18 01:10:34;;;;;;;13.33;11.93;;;;;20.00;101393.00;;;;2065790;28;20210;-63
2023/04/18 01:11:34;;;;;;;12.93;10.70;;;;;20.00;101400.00;;;;2062145;28;20210;-63
2023/04/18 01:12:36;;;;;;;12.80;11.30;;;;;19.90;101385.00;;;;2062918;28;20556;-63
2023/04/18 01:13:36;;;;;;;11.57;10.38;;;;;19.90;101407.00;;;;2073968;28;20213;-62
2023/04/18 01:14:40;;;;;;;11.93;10.80;;;;;19.90;101388.00;;;;2070182;28;20577;-63
2023/04/18 01:15:41;;;;;;;10.40;9.40;;;;;19.90;101390.00;;;;2068247;28;20917;-63
2023/04/18 01:16:42;;;;;;;12.98;10.95;;;;;19.90;101384.00;;;;2076957;28;20670;-63
2023/04/18 01:17:43;;;;;;;11.88;10.68;;;;;20.00;101393.00;;;;2074169;28;20210;-62
2023/04/18 01:18:43;;;;;;;11.70;10.30;;;;;19.90;101385.00;;;;2071863;28;20214;-63
2023/04/18 01:19:45;;;;;;;11.70;10.60;;;;;20.00;101392.00;;;;2075088;28;20237;-62
2023/04/18 01:20:46;;;;;;;11.18;10.00;;;;;19.90;101383.00;;;;2071514;28;20578;-63
2023/04/18 01:21:47;;;;;;;11.88;10.77;;;;;19.90;101386.00;;;;2061123;28;20679;-62
2023/04/18 01:22:47;;;;;;;11.70;10.60;;;;;19.90;101382.00;;;;2070039;28;20264;-63
2023/04/18 01:23:47;;;;;;;12.33;11.00;;;;;20.00;101388.00;;;;2064071;28;20219;-62
2023/04/18 01:24:48;;;;;;;11.40;10.27;;;;;19.90;101378.00;;;;2064747;28;20210;-62
2023/04/18 01:25:48;;;;;;;11.27;10.23;;;;;19.90;101384.00;;;;2070944;28;20206;-62
2023/04/18 01:26:48;;;;;;;11.43;10.23;;;;;19.90;101382.00;;;;2071534;28;20208;-63
2023/04/18 01:27:50;;;;;;;11.00;9.93;;;;;19.90;101383.00;;;;2071573;28;20202;-63
2023/04/18 01:28:50;;;;;;;12.60;10.88;;;;;19.90;101388.00;;;;2074213;28;20201;-63
2023/04/18 01:29:51;;;;;;;11.33;9.43;;;;;19.90;101377.00;;;;2073951;28;20207;-64
2023/04/18 01:30:51;;;;;;;10.63;9.70;;;;;19.90;101382.00;;;;2070647;28;20277;-63
2023/04/18 01:31:51;;;;;;;10.93;9.87;;;;;19.90;101380.00;;;;2068864;28;20210;-63
2023/04/18 01:32:52;;;;;;;10.97;9.87;;;;;19.80;101375.00;;;;2070998;28;20569;-63
2023/04/18 01:33:52;;;;;;;10.63;9.57;;;;;19.90;101370.00;;;;2069272;28;20213;-63
2023/04/18 01:34:52;;;;;;;11.80;10.63;;;;;19.90;101375.00;;;;2064952;28;20210;-63
2023/04/18 01:35:53;;;;;;;10.40;9.40;;;;;19.90;101374.00;;;;2071049;28;20237;-63
2023/04/18 01:36:53;;;;;;;9.97;8.97;;;;;19.90;101375.00;;;;2071583;28;20230;-63
2023/04/18 01:37:53;;;;;;;10.30;9.30;;;;;19.90;101372.00;;;;2075615;28;20240;-63
2023/04/18 01:38:54;;;;;;;10.10;9.10;;;;;19.90;101374.00;;;;2073794;28;20260;-62
2023/04/18 01:39:57;;;;;;;9.90;8.90;;;;;19.90;101371.00;;;;2070275;28;20221;-63
2023/04/18 01:40:57;;;;;;;12.45;9.55;;;;;19.90;101373.00;;;;2072038;28;20199;-63
2023/04/18 01:41:57;;;;;;;9.53;8.63;;;;;19.90;101372.00;;;;2070707;28;20708;-63
2023/04/18 01:42:57;;;;;;;10.07;9.07;;;;;19.90;101371.00;;;;2070264;28;20654;-63
2023/04/18 01:43:58;;;;;;;9.43;8.53;;;;;19.90;101372.00;;;;2074456;28;20232;-63
2023/04/18 01:44:58;;;;;;;10.43;9.40;;;;;19.90;101372.00;;;;2076532;28;20210;-63
2023/04/18 01:45:58;;;;;;;9.83;8.93;;;;;19.90;101370.00;;;;2071690;28;20198;-63
2023/04/18 01:46:59;;;;;;;9.73;8.73;;;;;19.90;101363.00;;;;2073323;28;20222;-63
2023/04/18 01:47:59;;;;;;;9.80;8.80;;;;;19.90;101366.00;;;;2073977;28;20206;-63
2023/04/18 01:48:59;;;;;;;8.90;8.00;;;;;19.90;101367.00;;;;2076885;28;20202;-62
2023/04/18 01:50:00;;;;;;;8.90;8.10;;;;;19.90;101366.00;;;;2071230;28;20245;-63
2023/04/18 01:51:00;;;;;;;9.50;8.60;;;;;19.90;101361.00;;;;2071385;28;20206;-63
2023/04/18 01:52:01;;;;;;;9.80;8.80;;;;;19.90;101370.00;;;;2073989;28;20211;-63
2023/04/18 01:53:01;;;;;;;10.10;9.03;;;;;19.90;101357.00;;;;2071243;28;20222;-63
2023/04/18 01:54:01;;;;;;;9.77;8.77;;;;;19.90;101371.00;;;;2073443;28;20216;-63
2023/04/18 01:55:02;;;;;;;9.43;8.53;;;;;19.90;101361.00;;;;2075384;28;20213;-63
2023/04/18 01:56:03;;;;;;;9.00;8.10;;;;;19.90;101369.00;;;;2074664;28;20572;-62
2023/04/18 01:57:03;;;;;;;9.63;8.73;;;;;19.90;101372.00;;;;2062637;28;20470;-62
2023/04/18 01:58:03;;;;;;;8.97;8.07;;;;;19.90;101367.00;;;;2054528;28;20225;-63
2023/04/18 01:59:04;;;;;;;9.10;8.30;;;;;19.90;101364.00;;;;2062629;28;20269;-63
2023/04/18 02:00:05;;;;;;;8.67;7.87;;;;;19.90;101359.00;;;;2067700;28;20740;-63
2023/04/18 02:01:05;;;;;;;9.40;8.50;;;;;19.90;101362.00;;;;2062485;28;20211;-62
2023/04/18 02:02:05;;;;;;;9.27;8.37;;;;;19.90;101360.00;;;;2071120;28;20634;-62
2023/04/18 02:03:06;;;;;;;9.27;8.37;;;;;19.90;101357.00;;;;2062674;28;20647;-62
2023/04/18 02:04:06;;;;;;;8.60;7.70;;;;;19.80;101358.00;;;;2063745;28;20273;-63
2023/04/18 02:05:07;;;;;;;9.97;8.97;;;;;19.90;101350.00;;;;2070293;28;20214;-62
2023/04/18 02:06:08;;;;;;;9.10;8.17;;;;;19.80;101351.00;;;;2071346;28;20218;-62
2023/04/18 02:07:09;;;;;;;8.90;8.00;;;;;19.80;101357.00;;;;2070728;28;20302;-63
2023/04/18 02:08:10;;;;;;;9.77;8.50;;;;;19.80;101350.00;;;;2071182;28;20226;-63
2023/04/18 02:09:11;;;;;;;8.82;7.97;;;;;19.80;101351.00;;;;2070420;28;20213;-63
2023/04/18 02:10:11;;;;;;;8.53;7.30;;;;;19.80;101355.00;;;;2071125;28;20214;-62
2023/04/18 02:11:11;;;;;;;8.87;7.97;;;;;19.80;101360.00;;;;2071441;28;20218;-62
2023/04/18 02:12:12;;;;;;;8.80;7.90;;;;;19.80;101356.00;;;;2070322;28;20221;-63
2023/04/18 02:13:14;;;;;;;7.70;6.90;;;;;19.80;101363.00;;;;2071118;28;20222;-62
2023/04/18 02:14:14;;;;;;;9.27;8.38;;;;;19.80;101355.00;;;;2066132;28;20241;-63
2023/04/18 02:15:14;;;;;;;8.17;7.37;;;;;19.80;101362.00;;;;2071120;28;20720;-63
2023/04/18 02:16:15;;;;;;;7.30;6.70;;;;;19.80;101358.00;;;;2071002;28;20220;-62
2023/04/18 02:17:15;;;;;;;7.97;7.20;;;;;19.80;101361.00;;;;2061944;28;20214;-62
2023/04/18 02:18:16;;;;;;;8.23;7.43;;;;;19.80;101364.00;;;;2062484;28;20222;-63
2023/04/18 02:19:16;;;;;;;7.70;6.90;;;;;19.80;101362.00;;;;2070553;28;20225;-62
2023/04/18 02:20:17;;;;;;;7.97;7.17;;;;;19.80;101365.00;;;;2071087;28;20531;-62
2023/04/18 02:21:17;;;;;;;7.97;7.27;;;;;19.80;101362.00;;;;2070157;28;20214;-63
2023/04/18 02:22:17;;;;;;;7.93;7.17;;;;;19.80;101358.00;;;;2071080;28;20238;-63
2023/04/18 02:23:18;;;;;;;9.30;7.10;;;;;19.80;101358.00;;;;2070940;28;20221;-63
2023/04/18 02:24:18;;;;;;;8.17;7.37;;;;;19.80;101362.00;;;;2076572;28;20213;-63
2023/04/18 02:25:22;;;;;;;8.20;7.50;;;;;19.80;101365.00;;;;2071280;28;20230;-62
2023/04/18 02:26:22;;;;;;;7.30;6.65;;;;;19.80;101358.00;;;;2078374;28;20214;-63
2023/04/18 02:27:22;;;;;;;7.20;6.50;;;;;19.80;101356.00;;;;2079603;28;20233;-62
2023/04/18 02:28:23;;;;;;;7.40;6.80;;;;;19.80;101364.00;;;;2078539;28;20213;-63
2023/04/18 02:29:23;;;;;;;7.43;6.73;;;;;19.80;101365.00;;;;2079567;28;20248;-62
2023/04/18 02:30:24;;;;;;;8.07;7.27;;;;;19.80;101359.00;;;;2078469;28;20275;-62
2023/04/18 02:31:25;;;;;;;7.97;7.27;;;;;19.80;101363.00;;;;2079197;28;20228;-62
2023/04/18 02:32:25;;;;;;;7.20;6.50;;;;;19.80;101360.00;;;;2079304;28;20209;-63
2023/04/18 02:33:25;;;;;;;9.63;6.50;;;;;19.80;101360.00;;;;2081958;28;20223;-62
2023/04/18 02:34:26;;;;;;;7.63;6.90;;;;;19.80;101304.00;;;;2079540;28;20213;-63
2023/04/18 02:35:26;;;;;;;6.77;6.10;;;;;19.80;101362.00;;;;2078736;28;20240;-63
2023/04/18 02:36:27;;;;;;;6.93;6.33;;;;;19.70;101352.00;;;;2079483;28;20579;-62
2023/04/18 02:37:27;;;;;;;7.00;6.30;;;;;19.80;101364.00;;;;2078592;28;20240;-62
2023/04/18 02:38:27;;;;;;;7.60;6.90;;;;;19.80;101360.00;;;;2079507;28;20318;-63
2023/04/18 02:39:27;;;;;;;7.80;7.10;;;;;19.80;101357.00;;;;2079223;28;20608;-63
2023/04/18 02:40:28;;;;;;;7.63;6.93;;;;;19.80;101360.00;;;;2078663;28;20210;-63
2023/04/18 02:41:28;;;;;;;7.00;6.30;;;;;19.70;101361.00;;;;2079438;28;20213;-62
2023/04/18 02:42:29;;;;;;;7.40;6.70;;;;;19.80;101364.00;;;;2078352;28;20217;-62
2023/04/18 02:43:29;;;;;;;7.43;6.70;;;;;19.80;101359.00;;;;2079484;28;20268;-63
2023/04/18 02:44:30;;;;;;;5.97;5.47;;;;;19.70;101361.00;;;;2078744;28;20467;-62
2023/04/18 02:45:31;;;;;;;6.87;6.23;;;;;19.80;101364.00;;;;2079550;28;20206;-62
2023/04/18 02:46:31;;;;;;;7.88;7.13;;;;;19.80;101365.00;;;;2079514;28;20565;-62
2023/04/18 02:47:32;;;;;;;6.67;6.00;;;;;19.80;101357.00;;;;2080599;28;20296;-62
2023/04/18 02:48:32;;;;;;;7.37;6.67;;;;;19.80;101352.00;;;;2078857;28;20242;-62
2023/04/18 02:49:32;;;;;;;6.87;6.17;;;;;19.80;101366.00;;;;2078565;28;20229;-63
2023/04/18 02:50:34;;;;;;;6.10;5.60;;;;;19.80;101368.00;;;;2079259;28;20213;-62
2023/04/18 02:51:34;;;;;;;6.22;5.63;;;;;19.80;101361.00;;;;2078664;28;20304;-62
2023/04/18 02:52:34;;;;;;;6.47;5.87;;;;;19.80;101366.00;;;;2079087;28;20723;-62
2023/04/18 02:53:35;;;;;;;6.77;6.10;;;;;19.70;101367.00;;;;2079003;28;20713;-63
2023/04/18 02:54:35;;;;;;;6.70;6.10;;;;;19.70;101365.00;;;;2078547;28;20754;-63
2023/04/18 02:55:36;;;;;;;6.27;5.77;;;;;19.70;101370.00;;;;2078572;28;20210;-62
2023/04/18 02:56:38;;;;;;;7.67;6.23;;;;;19.70;101366.00;;;;2077838;28;20312;-62
2023/04/18 02:57:39;;;;;;;6.70;6.10;;;;;19.70;101363.00;;;;2079245;28;20209;-63
2023/04/18 02:58:39;;;;;;;6.80;5.87;;;;;19.70;101365.00;;;;2078309;28;20702;-63
2023/04/18 02:59:39;;;;;;;6.20;5.70;;;;;19.70;101362.00;;;;2079170;28;20224;-63
2023/04/18 03:00:40;;;;;;;6.67;6.07;;;;;19.70;101362.00;;;;2079413;28;20296;-63
2023/04/18 03:01:40;;;;;;;6.40;5.80;;;;;19.70;101366.00;;;;2078314;28;20239;-62
2023/04/18 03:02:40;;;;;;;5.87;5.37;;;;;19.70;101357.00;;;;2079268;28;20593;-63
2023/04/18 03:03:41;;;;;;;5.97;5.40;;;;;19.70;101361.00;;;;2078333;28;20260;-62
2023/04/18 03:04:41;;;;;;;5.87;5.37;;;;;19.70;101363.00;;;;2079135;28;20206;-62
2023/04/18 03:05:41;;;;;;;6.33;5.73;;;;;19.70;101349.00;;;;2078700;28;20256;-63
2023/04/18 03:06:42;;;;;;;6.27;5.67;;;;;19.70;101357.00;;;;2077697;28;20213;-62
2023/04/18 03:07:42;;;;;;;6.37;5.80;;;;;19.70;101365.00;;;;2077852;28;20224;-62
2023/04/18 03:08:42;;;;;;;6.30;5.70;;;;;19.60;101362.00;;;;2078449;28;20217;-62
2023/04/18 03:09:43;;;;;;;5.90;5.40;;;;;19.70;101344.00;;;;2079130;28;20247;-63
2023/04/18 03:10:43;;;;;;;6.70;5.83;;;;;19.70;101358.00;;;;2077934;28;20941;-65
2023/04/18 03:11:43;;;;;;;7.10;5.77;;;;;19.70;101355.00;;;;2078949;28;20590;-63
2023/04/18 03:12:44;;;;;;;6.93;5.60;;;;;19.80;101360.00;;;;2079260;28;20707;-63
2023/04/18 03:13:44;;;;;;;6.57;5.83;;;;;19.80;101358.00;;;;2078073;28;20217;-64
2023/04/18 03:14:44;;;;;;;7.07;5.67;;;;;19.80;101364.00;;;;2078374;28;20210;-63
2023/04/18 03:15:45;;;;;;;6.80;5.57;;;;;19.80;101363.00;;;;2081227;28;20217;-62
2023/04/18 03:16:45;;;;;;;6.07;5.47;;;;;19.80;101359.00;;;;2082737;28;20228;-63
2023/04/18 03:17:45;;;;;;;7.53;5.93;;;;;19.70;101363.00;;;;2078746;28;20216;-63
2023/04/18 03:18:46;;;;;;;5.80;5.20;;;;;19.80;101364.00;;;;2079206;28;20214;-62
2023/04/18 03:19:46;;;;;;;6.10;5.10;;;;;19.80;101360.00;;;;2079087;28;20221;-63
2023/04/18 03:20:46;;;;;;;5.70;5.20;;;;;19.80;101364.00;;;;2075455;28;20205;-63
2023/04/18 03:21:47;;;;;;;8.67;5.30;;;;;19.70;101368.00;;;;2079066;28;20209;-63
2023/04/18 03:22:47;;;;;;;5.57;4.77;;;;;19.80;101371.00;;;;2082443;28;20216;-63
2023/04/18 03:23:48;;;;;;;5.97;5.40;;;;;19.80;101374.00;;;;2080744;28;20229;-63
2023/04/18 03:24:48;;;;;;;6.40;5.80;;;;;19.70;101366.00;;;;2079342;28;20220;-62
2023/04/18 03:25:48;;;;;;;6.00;5.40;;;;;19.70;101363.00;;;;2081375;28;20240;-63
2023/04/18 03:26:49;;;;;;;4.87;4.47;;;;;19.80;101368.00;;;;2078982;28;20209;-62
2023/04/18 03:27:49;;;;;;;5.43;4.83;;;;;19.80;101364.00;;;;2077987;28;20288;-62
2023/04/18 03:28:50;;;;;;;5.70;5.10;;;;;19.70;101363.00;;;;2078444;28;20209;-63
2023/04/18 03:29:50;;;;;;;5.47;4.97;;;;;19.70;101364.00;;;;2078201;28;20238;-63
2023/04/18 03:30:51;;;;;;;5.00;4.50;;;;;19.70;101364.00;;;;2079161;28;20213;-62
2023/04/18 03:31:51;;;;;;;5.13;4.20;;;;;19.70;101366.00;;;;2077926;28;20217;-65
2023/04/18 03:32:52;;;;;;;5.93;5.40;;;;;19.70;101373.00;;;;2081627;28;20289;-63
2023/04/18 03:33:52;;;;;;;5.55;5.00;;;;;19.70;101360.00;;;;2078914;28;20625;-63
2023/04/18 03:34:53;;;;;;;5.17;4.67;;;;;19.70;101365.00;;;;2076397;28;20251;-64
2023/04/18 03:35:53;;;;;;;4.97;4.50;;;;;19.70;101370.00;;;;2079155;28;20217;-63
2023/04/18 03:36:53;;;;;;;5.27;4.77;;;;;19.70;101371.00;;;;2077869;28;20249;-63
2023/04/18 03:37:54;;;;;;;5.40;4.90;;;;;19.70;101374.00;;;;2078266;28;20228;-63
2023/04/18 03:38:54;;;;;;;4.73;4.30;;;;;19.70;101368.00;;;;2078158;28;20225;-63
2023/04/18 03:39:55;;;;;;;5.07;4.60;;;;;19.70;101375.00;;;;2079337;28;20227;-63
2023/04/18 03:40:55;;;;;;;5.20;4.70;;;;;19.70;101370.00;;;;2079031;28;20225;-63
2023/04/18 03:41:55;;;;;;;8.27;5.03;;;;;19.70;101370.00;;;;2078445;28;20224;-63
2023/04/18 03:42:58;;;;;;;4.82;4.25;;;;;19.70;101363.00;;;;2078822;28;20217;-63
2023/04/18 03:43:58;;;;;;;6.60;4.70;;;;;19.70;101371.00;;;;2079356;28;20327;-63
2023/04/18 03:44:59;;;;;;;4.90;4.50;;;;;19.70;101368.00;;;;2078931;28;20220;-63
2023/04/18 03:45:59;;;;;;;6.13;5.53;;;;;19.70;101368.00;;;;2077077;28;20791;-63
2023/04/18 03:46:59;;;;;;;7.33;6.23;;;;;19.70;101374.00;;;;2074244;28;20213;-63
2023/04/18 03:48:00;;;;;;;7.33;6.63;;;;;19.70;101371.00;;;;2078969;28;20233;-63
2023/04/18 03:49:00;;;;;;;7.93;7.23;;;;;19.70;101371.00;;;;2078097;28;20786;-63
2023/04/18 03:50:00;;;;;;;7.90;7.20;;;;;19.70;101365.00;;;;2078883;28;20271;-63
2023/04/18 03:51:01;;;;;;;10.60;9.60;;;;;19.70;101367.00;;;;2082038;28;20237;-63
2023/04/18 03:52:01;;;;;;;12.50;11.20;;;;;19.70;101369.00;;;;2079127;28;20214;-63
2023/04/18 03:53:01;;;;;;;11.73;10.53;;;;;19.70;101370.00;;;;2077454;28;20221;-63
2023/04/18 03:54:02;;;;;;;13.70;11.50;;;;;19.70;101376.00;;;;2078680;28;20676;-63
2023/04/18 03:55:02;;;;;;;15.47;13.30;;;;;19.60;101373.00;;;;2078853;28;20681;-63
2023/04/18 03:56:03;;;;;;;16.70;13.83;;;;;19.60;101360.00;;;;2077583;28;20563;-63
2023/04/18 03:57:03;;;;;;;18.33;15.40;;;;;19.60;101372.00;;;;2078839;28;20673;-63
2023/04/18 03:58:03;;;;;;;20.97;15.10;;;;;19.70;101370.00;;;;2077961;28;20244;-63
2023/04/18 03:59:04;;;;;;;21.97;18.00;;;;;19.70;101368.00;;;;2078816;28;20213;-63
2023/04/18 04:00:06;;;;;;;22.47;19.10;;;;;19.60;101373.00;;;;2075072;28;20228;-63
2023/04/18 04:01:07;;;;;;;20.80;17.45;;;;;19.70;101373.00;;;;2078627;28;20214;-63
2023/04/18 04:02:07;;;;;;;23.53;20.10;;;;;19.70;101385.00;;;;2078516;28;20212;-63
2023/04/18 04:03:07;;;;;;;23.43;20.30;;;;;19.60;101373.00;;;;2082282;28;20205;-63
2023/04/18 04:04:10;;;;;;;28.90;23.77;;;;;19.70;101377.00;;;;2078677;28;20264;-63
2023/04/18 04:05:10;;;;;;;28.83;24.60;;;;;19.70;101374.00;;;;2075079;28;20259;-63
2023/04/18 04:06:11;;;;;;;32.30;27.07;;;;;19.60;101377.00;;;;2078736;28;20635;-63
2023/04/18 04:07:11;;;;;;;35.00;26.90;;;;;19.60;101381.00;;;;2077847;28;20700;-62
2023/04/18 04:08:13;;;;;;;35.93;29.57;;;;;19.70;101369.00;;;;2078562;28;20232;-63
2023/04/18 04:09:13;;;;;;;33.20;25.58;;;;;19.60;101372.00;;;;2078167;28;20696;-64
2023/04/18 04:10:14;;;;;;;40.33;31.43;;;;;19.60;101375.00;;;;2077247;28;20222;-63
2023/04/18 04:11:14;;;;;;;40.27;31.57;;;;;19.60;101375.00;;;;2078768;28;20205;-63
2023/04/18 04:12:14;;;;;;;39.87;31.90;;;;;19.60;101377.00;;;;2077682;28;20697;-63
2023/04/18 04:13:15;;;;;;;37.00;29.90;;;;;19.60;101375.00;;;;2078681;28;20988;-63
2023/04/18 04:14:15;;;;;;;42.03;32.40;;;;;19.60;101339.00;;;;2078087;28;20245;-63
2023/04/18 04:15:15;;;;;;;42.27;33.50;;;;;19.60;101379.00;;;;2086315;28;20224;-63
2023/04/18 04:16:16;;;;;;;39.00;31.57;;;;;19.60;101376.00;;;;2078641;28;20290;-62
2023/04/18 04:17:16;;;;;;;38.47;30.63;;;;;19.60;101378.00;;;;2077756;28;20214;-63
2023/04/18 04:18:16;;;;;;;41.07;31.87;;;;;19.60;101375.00;;;;2078656;28;20240;-63
2023/04/18 04:19:16;;;;;;;39.67;30.70;;;;;19.60;101379.00;;;;2079492;28;20218;-63
2023/04/18 04:20:22;;;;;;;41.30;30.67;;;;;19.60;101375.00;;;;2080331;28;20218;-63
2023/04/18 04:21:23;;;;;;;43.22;33.17;;;;;19.60;101378.00;;;;2079534;28;20225;-63
2023/04/18 04:22:23;;;;;;;43.77;33.57;;;;;19.60;101378.00;;;;2079867;28;20217;-63
2023/04/18 04:23:24;;;;;;;46.10;33.83;;;;;19.60;101382.00;;;;2080302;28;20318;-63
2023/04/18 04:24:24;;;;;;;41.33;31.70;;;;;19.60;101381.00;;;;2079104;28;20227;-63
2023/04/18 04:25:28;;;;;;;42.10;31.03;;;;;19.60;101380.00;;;;2079344;28;20455;-63
2023/04/18 04:26:29;;;;;;;42.92;33.45;;;;;19.60;101382.00;;;;2080236;28;20221;-63
2023/04/18 04:27:29;;;;;;;44.20;33.03;;;;;19.60;101375.00;;;;2078744;28;20245;-63
2023/04/18 04:28:30;;;;;;;47.30;32.73;;;;;19.60;101376.00;;;;2079222;28;20214;-64
2023/04/18 04:29:30;;;;;;;38.80;31.50;;;;;19.60;101374.00;;;;2079972;28;20311;-67
2023/04/18 04:30:32;;;;;;;42.90;34.00;;;;;19.60;101381.00;;;;2080147;28;20206;-62
2023/04/18 04:31:32;;;;;;;42.80;31.92;;;;;19.60;101384.00;;;;2078518;28;20206;-62
2023/04/18 04:32:32;;;;;;;42.73;32.23;;;;;19.60;101377.00;;;;2080222;28;20723;-62
2023/04/18 04:33:33;;;;;;;42.47;33.97;;;;;19.60;101379.00;;;;2080481;28;20601;-62
2023/04/18 04:34:34;;;;;;;47.17;33.63;;;;;19.60;101375.00;;;;2079442;28;20303;-62
2023/04/18 04:35:35;;;;;;;39.58;31.90;;;;;19.60;101382.00;;;;2078367;28;20210;-62
2023/04/18 04:36:35;;;;;;;41.28;31.73;;;;;19.60;101385.00;;;;2079553;28;20228;-62
2023/04/18 04:37:37;;;;;;;50.40;35.37;;;;;19.60;101378.00;;;;2079340;28;20209;-62
2023/04/18 04:38:39;;;;;;;44.25;33.22;;;;;19.60;101385.00;;;;2078957;28;20209;-62
2023/04/18 04:39:39;;;;;;;47.33;34.78;;;;;19.60;101381.00;;;;2079790;28;20671;-62
2023/04/18 04:40:41;;;;;;;49.57;37.43;;;;;19.60;101391.00;;;;2080097;28;20223;-62
2023/04/18 04:41:41;;;;;;;48.08;34.33;;;;;19.60;101384.00;;;;2079959;28;20205;-62
2023/04/18 04:42:41;;;;;;;46.70;36.10;;;;;19.60;101393.00;;;;2075471;28;20226;-62
2023/04/18 04:43:42;;;;;;;44.90;34.77;;;;;19.60;101393.00;;;;2080351;28;20248;-62
2023/04/18 04:44:42;;;;;;;49.63;34.90;;;;;19.60;101395.00;;;;2077796;28;20232;-62
2023/04/18 04:45:43;;;;;;;43.37;34.17;;;;;19.50;101394.00;;;;2079780;28;20214;-62
2023/04/18 04:46:43;;;;;;;41.57;33.13;;;;;19.50;101397.00;;;;2080172;28;20818;-62
2023/04/18 04:47:44;;;;;;;39.20;33.13;;;;;19.60;101399.00;;;;2079680;28;20208;-62
2023/04/18 04:48:44;;;;;;;45.93;33.93;;;;;19.50;101398.00;;;;2080275;28;20229;-62
2023/04/18 04:49:45;;;;;;;43.20;31.37;;;;;19.60;101401.00;;;;2081054;28;20245;-63
2023/04/18 04:50:57;;;;;;;39.77;31.60;;;;;19.60;101404.00;;;;2079659;28;20221;-63
2023/04/18 04:51:57;;;;;;;40.17;29.70;;;;;19.50;101396.00;;;;2078239;28;20320;-64
2023/04/18 04:52:57;;;;;;;41.47;31.97;;;;;19.50;101400.00;;;;2079713;28;20297;-63
2023/04/18 04:53:58;;;;;;;37.30;30.23;;;;;19.50;101405.00;;;;2079346;28;20232;-63
2023/04/18 04:54:58;;;;;;;38.50;30.10;;;;;19.50;101405.00;;;;2079315;28;20213;-62
2023/04/18 04:55:58;;;;;;;39.83;30.27;;;;;19.50;101402.00;;;;2080255;28;20213;-63